Airfield :
LOGIN :

Register | Disclaimer

   EN    FR    IT 

 










Legend :    VFR   Marginal VFR   IFR   Intensive IFR   Very Intensive IFR
Visi :
Ceiling :
>= 8 km
>= 3000ft
5 to 8 km
1000 to 3000 ft
1500m to 5 km
500 to 1000 ft
800 to 1500m
200 to 500 ft
< 800m
< 200 ft
Symbols :   Thunderstorms  Fog  Heavy snow  Heavy precipitations  Wind > 20 kt
SIGMETs :     Misc.  Thunderstorms  Icing  Turbulence  Mountain Waves  Volcanic Ashes







- Airport Elevation : 443 ft
- IATA code : SQQ


EYSA - Siauliai

CURRENT METAR :
  • 160720Z 11009KT 9999 OVC010 M02/M03 Q1028 R14L/29//95 GRN NOSIG

EXPIRED METARs :
  • 160650Z 11009KT 9999 OVC010 M02/M03 Q1028 R14L/29//95 GRN NOSIG
  • 160620Z 11007KT 9999 FEW009 OVC012 M02/M03 Q1028 R14L/29//95 GRN NOSIG
  • 160550Z 10010KT 9999 OVC011 M02/M03 Q1028 R14L/29//95 GRN NOSIG
  • 160520Z 09010KT 9999 OVC011 M02/M03 Q1028 R14L/29//95 GRN NOSIG
  • 160450Z 09009KT 9999 OVC010 M02/M03 Q1028 R14L/29//95 GRN NOSIG

TAF TAF EYSA
Valid from the 16 at 06:00 until the 16 at 15:00 UTC


160506Z 1606/1615 11010G20KT 6000 OVC006
TEMPO 1606/1609 3000 SN
BECMG 1609/1611 13020KT 3000 SN BLSN OVC004
No reported NOTAMs for that airfield.



MET'MAP, your aeronautical weather chart ! - Copyright ORBIFLY December 2007 - Disclaimer

ORBIFLY MET'MAP TEAM :

Programming & Development : Alexandra Zaïnal
Concept & Development : Baudouin d'Aumeries
Co-Development & Prog : Marc-Olivier Méhu
Technical & hardware support : Manuel Goepfert

Contact : metmap@orbifly.com




SOURCES & CREDITS :

   NOAA